Аэропорт: Гянджа. Гянджа

ICAO: UBBG

METAR:
2019/01/21 23:00
UBBG 212300Z 23006KT 9999 FEW100 M01/M06 Q1017 R30/CLRD// NOSIG 
METAR:
2019/01/21 18:00
TAF UBBG 211700Z 2118/2218 VRB02KT 9999 FEW030 SCT100 TX09/2212Z TNM02/2203Z 
      TEMPO 2201/2204 1500 BR BKN005 
      BECMG 2208/2210 29010KT 
      TEMPO 2210/2216 31016KT